Time;durP1;ratioP1;P1;durP2;ratioP2;P2;SDS_P1;SDS_P2;PMS_P1;PMS_P2;Temp;Humidity;BMP_temperature;BMP_pressure;BME280_temperature;BME280_humidity;BME280_pressure;Samples;Min_cycle;Max_cycle;Signal;HPM_P1;HPM_P2
2021/01/26 00:00:29;;;;;;;;;;;;;;;-2.96;92.26;100982.84;5101351;28;20648;-74
2021/01/26 00:02:54;;;;;;;;;;;;;;;-2.94;92.03;100991.66;5095172;28;19951;-74
2021/01/26 00:05:19;;;;;;;;;;;;;;;-2.97;92.11;100989.31;5069329;28;19923;-74
2021/01/26 00:07:45;;;;;;;;;;;;;;;-2.99;91.86;100983.22;5100923;28;19923;-74
2021/01/26 00:10:11;;;;;;;;;;;;;;;-2.98;92.01;100984.94;5076003;28;19920;-74
2021/01/26 00:12:36;;;;;;;;;;;;;;;-3.02;91.92;100986.34;5098134;28;19916;-74
2021/01/26 00:15:02;;;;;;;;;;;;;;;-3.01;92.22;100992.59;5057053;28;19927;-74
2021/01/26 00:17:27;;;;;;;;;;;;;;;-3.03;91.79;100991.97;5099318;28;19920;-73
2021/01/26 00:19:53;;;;;;;;;;;;;;;-3.06;91.76;100987.78;5086627;28;19916;-74
2021/01/26 00:22:18;;;;;;;;;;;;;;;-3.10;91.75;100989.16;5051568;28;19962;-73
2021/01/26 00:24:43;;;;;;;;;;;;;;;-3.11;91.63;100995.66;5084918;28;19920;-74
2021/01/26 00:27:09;;;;;;;;;;;;;;;-3.11;91.84;100992.09;5075699;28;20403;-74
2021/01/26 00:29:34;;;;;;;;;;;;;;;-3.15;92.01;100994.34;5088768;28;19916;-74
2021/01/26 00:31:59;;;;;;;;;;;;;;;-3.16;91.95;100993.50;5062497;28;20288;-74
2021/01/26 00:34:25;;;;;;;;;;;;;;;-3.18;92.24;101002.88;5077372;28;19916;-74
2021/01/26 00:36:50;;;;;;;;;;;;;;;-3.21;91.92;100998.66;5081581;28;19981;-74
2021/01/26 00:39:15;;;;;;;;;;;;;;;-3.18;91.92;101000.16;5099482;28;19920;-74
2021/01/26 00:41:41;;;;;;;;;;;;;;;-3.24;92.16;100999.06;5061395;28;19920;-74
2021/01/26 00:44:06;;;;;;;;;;;;;;;-3.22;92.21;101005.13;5094832;28;20360;-74
2021/01/26 00:46:31;;;;;;;;;;;;;;;-3.23;92.15;101003.47;5101701;28;19920;-74
2021/01/26 00:48:57;;;;;;;;;;;;;;;-3.23;92.18;100997.16;5089731;28;20396;-74
2021/01/26 00:51:22;;;;;;;;;;;;;;;-3.23;92.33;100998.03;5090002;28;19920;-74
2021/01/26 00:53:47;;;;;;;;;;;;;;;-3.23;92.26;101008.91;5095108;28;20283;-74
2021/01/26 00:56:13;;;;;;;;;;;;;;;-3.22;92.22;100998.88;5099131;28;19937;-74
2021/01/26 00:58:38;;;;;;;;;;;;;;;-3.22;92.44;100998.88;5088413;28;19916;-74
2021/01/26 01:01:04;;;;;;;;;;;;;;;-3.24;92.34;101009.91;5098778;28;19916;-74
2021/01/26 01:03:29;;;;;;;;;;;;;;;-3.22;92.29;101004.31;5097868;28;20072;-74
2021/01/26 01:05:54;;;;;;;;;;;;;;;-3.21;92.39;101003.25;5069698;28;19916;-75
2021/01/26 01:08:20;;;;;;;;;;;;;;;-3.20;92.30;101004.97;5086906;28;19916;-74
2021/01/26 01:10:45;;;;;;;;;;;;;;;-3.21;92.32;100997.81;5078502;28;19920;-74
2021/01/26 01:13:11;;;;;;;;;;;;;;;-3.22;92.53;100991.56;5073518;28;19919;-74
2021/01/26 01:15:36;;;;;;;;;;;;;;;-3.21;92.45;100993.22;5077297;28;19924;-74
2021/01/26 01:18:02;;;;;;;;;;;;;;;-3.20;92.40;100989.50;5073326;28;19927;-74
2021/01/26 01:20:27;;;;;;;;;;;;;;;-3.19;92.43;100982.19;5103459;28;19912;-74
2021/01/26 01:22:53;;;;;;;;;;;;;;;-3.19;92.31;100982.19;5061466;28;19947;-74
2021/01/26 01:25:18;;;;;;;;;;;;;;;-3.19;92.36;100985.75;5063609;28;19923;-74
2021/01/26 01:27:44;;;;;;;;;;;;;;;-3.19;92.38;100987.63;5065907;28;19917;-74
2021/01/26 01:30:10;;;;;;;;;;;;;;;-3.20;92.42;101000.38;5063406;28;19936;-74
2021/01/26 01:32:35;;;;;;;;;;;;;;;-3.17;92.46;101007.28;5044771;28;19923;-74
2021/01/26 01:35:00;;;;;;;;;;;;;;;-3.20;92.48;101003.09;5073105;28;20427;-74
2021/01/26 01:37:26;;;;;;;;;;;;;;;-3.19;92.54;101009.34;5097556;28;19943;-74
2021/01/26 01:39:51;;;;;;;;;;;;;;;-3.16;92.63;101012.53;5082289;28;19926;-74
2021/01/26 01:42:16;;;;;;;;;;;;;;;-3.17;92.64;101012.72;5075877;28;19927;-74
2021/01/26 01:44:42;;;;;;;;;;;;;;;-3.17;92.61;101018.16;5074760;28;19920;-74
2021/01/26 01:47:09;;;;;;;;;;;;;;;-3.17;92.55;101012.72;5079890;28;19967;-74
2021/01/26 01:49:44;;;;;;;;;;;;;;;-3.13;92.86;101021.31;5083602;28;19912;-74
2021/01/26 01:52:13;;;;;;;;;;;;;;;-3.13;92.61;101018.63;5040160;28;19920;-73
2021/01/26 01:54:39;;;;;;;;;;;;;;;-3.12;92.77;101026.59;5078478;28;19922;-74
2021/01/26 01:57:16;;;;;;;;;;;;;;;-3.12;93.04;101040.16;5070441;28;19916;-74
2021/01/26 01:59:41;;;;;;;;;;;;;;;-3.12;92.93;101037.44;5079539;28;19916;-74
2021/01/26 02:02:07;;;;;;;;;;;;;;;-3.12;92.86;101048.31;5076135;28;20330;-74
2021/01/26 02:04:32;;;;;;;;;;;;;;;-3.08;92.77;101046.06;5071144;28;20000;-74
2021/01/26 02:06:58;;;;;;;;;;;;;;;-3.10;92.90;101051.66;5059872;28;20015;-74
2021/01/26 02:09:30;;;;;;;;;;;;;;;-3.10;92.77;101051.66;5094588;28;20315;-74
2021/01/26 02:11:56;;;;;;;;;;;;;;;-3.09;92.90;101053.38;5090067;28;19916;-74
2021/01/26 02:14:21;;;;;;;;;;;;;;;-3.09;92.80;101057.94;5096567;28;20306;-74
2021/01/26 02:16:52;;;;;;;;;;;;;;;-3.10;92.80;101046.22;5059762;28;19916;-74
2021/01/26 02:19:18;;;;;;;;;;;;;;;-3.09;92.80;101045.22;5108296;28;19954;-73
2021/01/26 02:21:49;;;;;;;;;;;;;;;-3.11;92.85;101049.16;5061243;28;19916;-74
2021/01/26 02:24:34;;;;;;;;;;;;;;;-3.11;92.86;101060.88;5089768;28;19916;-74
2021/01/26 02:27:18;;;;;;;;;;;;;;;-3.10;92.80;101067.97;5055560;28;19916;-74
2021/01/26 02:29:59;;;;;;;;;;;;;;;-3.12;92.79;101080.94;5061409;28;19917;-74
2021/01/26 02:32:44;;;;;;;;;;;;;;;-3.13;92.79;101073.78;5058060;28;19951;-74
2021/01/26 02:35:13;;;;;;;;;;;;;;;-3.15;92.99;101064.97;5087309;28;20294;-74
2021/01/26 02:37:54;;;;;;;;;;;;;;;-3.11;93.00;101066.31;5090622;28;19923;-74
2021/01/26 02:40:28;;;;;;;;;;;;;;;-3.13;92.88;101083.81;5053707;28;19912;-74
2021/01/26 02:43:12;;;;;;;;;;;;;;;-3.13;92.83;101083.81;5088404;28;19923;-75
2021/01/26 02:46:10;;;;;;;;;;;;;;;-3.13;92.82;101084.66;5072853;28;20296;-74
2021/01/26 02:48:39;;;;;;;;;;;;;;;-3.14;92.91;101074.84;5053385;28;20284;-75
2021/01/26 02:51:14;;;;;;;;;;;;;;;-3.14;92.99;101066.69;5077078;28;19919;-74
2021/01/26 02:53:40;;;;;;;;;;;;;;;-3.14;93.02;101066.69;5035175;28;20394;-74
2021/01/26 02:56:08;;;;;;;;;;;;;;;-3.15;93.10;101075.84;5086703;28;19989;-74
2021/01/26 02:58:38;;;;;;;;;;;;;;;-3.13;93.28;101086.53;5070820;28;19923;-74
2021/01/26 03:01:04;;;;;;;;;;;;;;;-3.13;93.32;101079.22;5079763;28;19916;-74
2021/01/26 03:03:29;;;;;;;;;;;;;;;-3.11;93.21;101085.31;5069031;28;19971;-74
2021/01/26 03:05:59;;;;;;;;;;;;;;;-3.08;93.43;101090.38;5072757;28;20398;-75
2021/01/26 03:08:37;;;;;;;;;;;;;;;-3.10;93.35;101092.44;5083396;28;20394;-74
2021/01/26 03:11:08;;;;;;;;;;;;;;;-3.09;93.55;101087.81;5098521;28;19928;-74
2021/01/26 03:13:34;;;;;;;;;;;;;;;-3.08;93.48;101073.22;5067807;28;19916;-74
2021/01/26 03:16:01;;;;;;;;;;;;;;;-3.08;93.58;101076.78;5062710;28;19971;-74
2021/01/26 03:18:32;;;;;;;;;;;;;;;-3.06;93.59;101074.72;5091773;28;19916;-74
2021/01/26 03:20:59;;;;;;;;;;;;;;;-3.01;93.90;101069.56;5086662;28;20300;-74
2021/01/26 03:23:35;;;;;;;;;;;;;;;-3.02;93.74;101076.00;5062631;28;19916;-74
2021/01/26 03:26:00;;;;;;;;;;;;;;;-3.00;93.74;101075.84;5065240;28;19916;-74
2021/01/26 03:28:26;;;;;;;;;;;;;;;-3.00;93.75;101071.25;5064599;28;19922;-74
2021/01/26 03:30:52;;;;;;;;;;;;;;;-2.99;93.81;101058.50;5103495;28;19927;-74
2021/01/26 03:33:29;;;;;;;;;;;;;;;-2.97;93.76;101051.81;5078650;28;19920;-74
2021/01/26 03:35:54;;;;;;;;;;;;;;;-2.95;93.98;101057.91;5052593;28;20005;-74
2021/01/26 03:38:21;;;;;;;;;;;;;;;-2.93;93.94;101066.69;5071893;28;19920;-74
2021/01/26 03:40:46;;;;;;;;;;;;;;;-2.92;94.13;101062.97;5082978;28;19917;-74
2021/01/26 03:43:12;;;;;;;;;;;;;;;-2.89;94.19;101074.50;5074603;28;19961;-74
2021/01/26 03:45:37;;;;;;;;;;;;;;;-2.86;94.33;101068.69;5082073;28;20409;-74
2021/01/26 03:48:02;;;;;;;;;;;;;;;-2.82;94.16;101059.09;5078098;28;19921;-74
2021/01/26 03:50:47;;;;;;;;;;;;;;;-2.80;94.37;101051.59;5102572;28;19920;-74
2021/01/26 03:53:24;;;;;;;;;;;;;;;-2.80;94.30;101051.59;5085089;28;19921;-74
2021/01/26 03:56:05;;;;;;;;;;;;;;;-2.78;94.48;101044.94;5108465;28;19924;-74
2021/01/26 03:58:31;;;;;;;;;;;;;;;-2.76;94.55;101042.00;5082317;28;19951;-74
2021/01/26 04:01:23;;;;;;;;;;;;;;;-2.69;94.43;101037.47;5077240;28;20395;-75
2021/01/26 04:03:57;;;;;;;;;;;;;;;-2.71;94.52;101034.94;5081259;28;19923;-74
2021/01/26 04:06:25;;;;;;;;;;;;;;;-2.63;94.41;101031.25;5097656;28;19959;-74
2021/01/26 04:08:51;;;;;;;;;;;;;;;-2.65;94.65;101038.75;5073132;28;19916;-74
2021/01/26 04:11:18;;;;;;;;;;;;;;;-2.64;94.66;101034.19;5076628;28;19980;-74
2021/01/26 04:13:50;;;;;;;;;;;;;;;-2.63;94.61;101044.84;5078147;28;20385;-74
2021/01/26 04:16:16;;;;;;;;;;;;;;;-2.62;94.74;101037.53;5068465;28;19916;-74
2021/01/26 04:18:41;;;;;;;;;;;;;;;-2.60;94.67;101040.91;5073490;28;20356;-74
2021/01/26 04:21:08;;;;;;;;;;;;;;;-2.56;94.58;101032.19;5066412;28;19923;-74
2021/01/26 04:23:33;;;;;;;;;;;;;;;-2.56;94.71;101013.13;5056862;28;19923;-73
2021/01/26 04:26:06;;;;;;;;;;;;;;;-2.55;94.74;101009.38;5091844;28;20339;-74
2021/01/26 04:28:35;;;;;;;;;;;;;;;-2.53;94.55;101010.03;5108220;28;19920;-74
2021/01/26 04:31:01;;;;;;;;;;;;;;;-2.52;94.60;101013.59;5068714;28;19949;-74
2021/01/26 04:33:26;;;;;;;;;;;;;;;-2.45;94.78;101014.50;5066884;28;20025;-74
2021/01/26 04:35:51;;;;;;;;;;;;;;;-2.45;94.74;101019.94;5103099;28;19981;-74
2021/01/26 04:38:17;;;;;;;;;;;;;;;-2.48;94.91;101021.16;5073682;28;20372;-74
2021/01/26 04:40:42;;;;;;;;;;;;;;;-2.48;94.95;101015.72;5062206;28;19920;-74
2021/01/26 04:43:26;;;;;;;;;;;;;;;-2.46;94.89;101015.50;5061401;28;20007;-74
2021/01/26 04:46:10;;;;;;;;;;;;;;;-2.43;94.75;101008.84;5076956;28;19924;-74
2021/01/26 04:48:45;;;;;;;;;;;;;;;-2.44;95.05;101029.75;5094343;28;19916;-74
2021/01/26 04:51:40;;;;;;;;;;;;;;;-2.36;94.70;101031.50;5065909;28;19919;-74
2021/01/26 04:54:05;;;;;;;;;;;;;;;-2.39;94.61;101037.34;5076875;28;19915;-74
2021/01/26 04:56:34;;;;;;;;;;;;;;;-2.39;94.76;101027.31;5096733;28;19922;-74
2021/01/26 04:59:04;;;;;;;;;;;;;;;-2.37;94.59;101016.22;5080378;28;20380;-74
2021/01/26 05:01:48;;;;;;;;;;;;;;;-2.39;94.70;101010.16;5076021;28;19924;-74
2021/01/26 05:04:22;;;;;;;;;;;;;;;-2.41;94.60;101001.34;5101153;28;20022;-74
2021/01/26 05:06:51;;;;;;;;;;;;;;;-2.38;94.48;101011.81;5082666;28;19961;-74
2021/01/26 05:09:17;;;;;;;;;;;;;;;-2.38;94.36;101006.38;5074022;28;19920;-74
2021/01/26 05:11:43;;;;;;;;;;;;;;;-2.42;94.53;100995.06;5060679;28;19931;-74
2021/01/26 05:14:16;;;;;;;;;;;;;;;-2.43;94.68;100992.53;5069716;28;19916;-74
2021/01/26 05:16:50;;;;;;;;;;;;;;;-2.41;94.58;100983.13;5079917;28;20348;-74
2021/01/26 05:19:20;;;;;;;;;;;;;;;-2.43;94.79;100992.53;5090042;28;20307;-74
2021/01/26 05:21:56;;;;;;;;;;;;;;;-2.43;94.67;101003.41;5079790;28;19916;-74
2021/01/26 05:24:22;;;;;;;;;;;;;;;-2.42;94.88;101005.06;5082345;28;19917;-74
2021/01/26 05:26:48;;;;;;;;;;;;;;;-2.44;94.88;101005.28;5089738;28;20007;-75
2021/01/26 05:29:14;;;;;;;;;;;;;;;-2.39;94.60;100999.25;5077134;28;19946;-74
2021/01/26 05:31:40;;;;;;;;;;;;;;;-2.38;94.61;100987.34;5092734;28;19920;-74
2021/01/26 05:34:07;;;;;;;;;;;;;;;-2.43;94.60;100978.91;5069847;28;20019;-74
2021/01/26 05:36:33;;;;;;;;;;;;;;;-2.44;94.71;100986.25;5074632;28;19920;-74
2021/01/26 05:38:58;;;;;;;;;;;;;;;-2.42;94.69;100972.44;5076702;28;19912;-74
2021/01/26 05:41:23;;;;;;;;;;;;;;;-2.45;94.66;100970.97;5065053;28;19917;-74
2021/01/26 05:43:50;;;;;;;;;;;;;;;-2.45;94.60;100965.53;5075996;28;19916;-74
2021/01/26 05:46:35;;;;;;;;;;;;;;;-2.41;94.55;100963.25;5062300;28;19920;-74
2021/01/26 05:49:00;;;;;;;;;;;;;;;-2.47;94.41;100957.56;5073801;28;19916;-74
2021/01/26 05:51:25;;;;;;;;;;;;;;;-2.49;94.39;100961.50;5073584;28;19927;-74
2021/01/26 05:53:51;;;;;;;;;;;;;;;-2.53;94.52;100961.06;5092918;28;19916;-74
2021/01/26 05:56:17;;;;;;;;;;;;;;;-2.53;94.49;100960.22;5095725;28;19968;-74
2021/01/26 05:58:44;;;;;;;;;;;;;;;-2.53;94.38;100957.53;5078937;28;20325;-74
2021/01/26 06:01:10;;;;;;;;;;;;;;;-2.56;94.51;100956.03;5044531;28;19959;-74
2021/01/26 06:03:35;;;;;;;;;;;;;;;-2.57;94.70;100948.06;5069253;28;20281;-74
2021/01/26 06:06:02;;;;;;;;;;;;;;;-2.60;94.68;100943.84;5087906;28;19934;-74
2021/01/26 06:08:27;;;;;;;;;;;;;;;-2.59;94.79;100944.69;5063403;28;19923;-74
2021/01/26 06:10:53;;;;;;;;;;;;;;;-2.57;94.68;100931.72;5083987;28;19920;-74
2021/01/26 06:13:25;;;;;;;;;;;;;;;-2.61;94.67;100936.75;5069142;28;19917;-74
2021/01/26 06:15:51;;;;;;;;;;;;;;;-2.60;94.69;100941.13;5071632;28;19923;-74
2021/01/26 06:18:18;;;;;;;;;;;;;;;-2.58;94.92;100949.09;5072255;28;19916;-75
2021/01/26 06:20:43;;;;;;;;;;;;;;;-2.60;95.10;100952.00;5066925;28;20407;-74
2021/01/26 06:23:19;;;;;;;;;;;;;;;-2.60;95.09;100948.44;5088707;28;19942;-74
2021/01/26 06:25:46;;;;;;;;;;;;;;;-2.60;95.03;100938.41;5058712;28;19916;-74
2021/01/26 06:28:11;;;;;;;;;;;;;;;-2.58;95.04;100941.78;5071590;28;19916;-74
2021/01/26 06:30:56;;;;;;;;;;;;;;;-2.60;95.17;100943.84;5073352;28;19920;-74
2021/01/26 06:33:26;;;;;;;;;;;;;;;-2.55;95.01;100941.38;5073758;28;20253;-74
2021/01/26 06:36:01;;;;;;;;;;;;;;;-2.56;95.31;100955.19;5089013;28;19982;-74
2021/01/26 06:38:27;;;;;;;;;;;;;;;-2.53;95.25;100961.06;5072581;28;19931;-74
2021/01/26 06:41:07;;;;;;;;;;;;;;;-2.52;95.29;100956.47;5087612;28;19920;-74
2021/01/26 06:43:53;;;;;;;;;;;;;;;-2.53;95.46;100955.63;5038143;28;19920;-74
2021/01/26 06:46:21;;;;;;;;;;;;;;;-2.51;95.67;100964.44;5091387;28;19920;-74
2021/01/26 06:49:05;;;;;;;;;;;;;;;-2.49;95.75;100965.06;5074038;28;19955;-74
2021/01/26 06:51:30;;;;;;;;;;;;;;;-2.44;95.73;100966.38;5072386;28;19920;-74
2021/01/26 06:54:02;;;;;;;;;;;;;;;-2.43;95.61;100974.31;5070426;28;19969;-74
2021/01/26 06:56:46;;;;;;;;;;;;;;;-2.42;95.70;100973.28;5063224;28;19916;-74
2021/01/26 06:59:30;;;;;;;;;;;;;;;-2.38;95.72;100969.13;5065898;28;19917;-74
2021/01/26 07:01:56;;;;;;;;;;;;;;;-2.38;95.79;100966.41;5090188;28;19965;-74
2021/01/26 07:04:25;;;;;;;;;;;;;;;-2.35;95.79;100965.16;5094754;28;19928;-74
2021/01/26 07:07:00;;;;;;;;;;;;;;;-2.33;95.56;100968.53;5069934;28;19916;-74
2021/01/26 07:09:34;;;;;;;;;;;;;;;-2.32;95.86;100965.59;5061693;28;19923;-74
2021/01/26 07:12:12;;;;;;;;;;;;;;;-2.31;95.89;100974.63;5088445;28;19923;-74
2021/01/26 07:14:46;;;;;;;;;;;;;;;-2.26;95.87;100988.47;5089800;28;19959;-74
2021/01/26 07:17:11;;;;;;;;;;;;;;;-2.23;95.85;100990.78;5103956;28;19912;-74
2021/01/26 07:19:55;;;;;;;;;;;;;;;-2.23;95.94;100998.94;5079244;28;19915;-81
2021/01/26 07:22:40;;;;;;;;;;;;;;;-2.22;95.90;100989.75;5090445;28;19965;-75
2021/01/26 07:25:05;;;;;;;;;;;;;;;-2.22;96.08;100989.75;5093251;28;19916;-75
2021/01/26 07:27:40;;;;;;;;;;;;;;;-2.17;95.97;100998.19;5099440;28;19916;-77
2021/01/26 07:30:08;;;;;;;;;;;;;;;-2.16;96.09;100982.69;5097057;28;19969;-75
2021/01/26 07:32:38;;;;;;;;;;;;;;;-2.15;96.15;100987.91;5058322;28;19923;-76
2021/01/26 07:35:07;;;;;;;;;;;;;;;-2.12;96.07;100992.94;5063754;28;20363;-75
2021/01/26 07:37:35;;;;;;;;;;;;;;;-2.12;96.20;101003.84;5067941;28;20006;-74
2021/01/26 07:40:02;;;;;;;;;;;;;;;-2.09;96.17;101006.19;5059211;28;19923;-75
2021/01/26 07:42:30;;;;;;;;;;;;;;;-2.09;96.21;101006.19;5059756;28;19916;-75
2021/01/26 07:45:03;;;;;;;;;;;;;;;-2.05;96.13;101012.06;5050262;28;19958;-75
2021/01/26 07:47:32;;;;;;;;;;;;;;;-2.04;96.28;101017.28;5058687;28;19912;-74
2021/01/26 07:49:59;;;;;;;;;;;;;;;-2.03;96.28;101004.56;5075517;28;19974;-75
2021/01/26 07:52:25;;;;;;;;;;;;;;;-2.00;96.22;101016.94;5070132;28;19913;-75
2021/01/26 07:55:09;;;;;;;;;;;;;;;-2.00;96.24;101025.09;5067453;28;19916;-74
2021/01/26 07:57:36;;;;;;;;;;;;;;;-1.96;96.37;101037.25;5090967;28;19912;-74
2021/01/26 08:00:02;;;;;;;;;;;;;;;-1.95;96.16;101030.75;5067715;28;19917;-75
2021/01/26 08:02:29;;;;;;;;;;;;;;;-1.93;96.18;101015.91;5070832;28;19920;-74
2021/01/26 08:04:54;;;;;;;;;;;;;;;-1.90;96.25;101015.50;5065084;28;19921;-74
2021/01/26 08:07:20;;;;;;;;;;;;;;;-1.91;96.51;101010.28;5063951;28;19937;-74
2021/01/26 08:09:47;;;;;;;;;;;;;;;-1.88;96.61;101018.88;5074081;28;19918;-74
2021/01/26 08:12:28;;;;;;;;;;;;;;;-1.87;96.53;101019.72;5036276;28;19932;-74
2021/01/26 08:14:53;;;;;;;;;;;;;;;-1.84;96.63;101024.75;5085590;28;19969;-75
2021/01/26 08:17:29;;;;;;;;;;;;;;;-1.79;96.51;101014.09;5039711;28;19920;-74
2021/01/26 08:20:07;;;;;;;;;;;;;;;-1.77;96.68;101022.94;5054243;28;20368;-74
2021/01/26 08:22:42;;;;;;;;;;;;;;;-1.72;96.76;101035.94;5052393;28;19950;-74
2021/01/26 08:25:23;;;;;;;;;;;;;;;-1.72;96.74;101028.63;5079531;28;20324;-74
2021/01/26 08:27:55;;;;;;;;;;;;;;;-1.66;96.73;101043.31;5074588;28;19961;-75
2021/01/26 08:30:22;;;;;;;;;;;;;;;-1.64;96.77;101035.78;5093570;28;19919;-74
2021/01/26 08:32:47;;;;;;;;;;;;;;;-1.63;96.83;101027.41;5073059;28;19913;-74
2021/01/26 08:35:22;;;;;;;;;;;;;;;-1.59;96.92;101022.38;5043809;28;20292;-74
2021/01/26 08:37:50;;;;;;;;;;;;;;;-1.56;96.82;101032.91;5074036;28;20281;-74
2021/01/26 08:40:15;;;;;;;;;;;;;;;-1.52;97.10;101036.91;5047064;28;20349;-75
2021/01/26 08:42:40;;;;;;;;;;;;;;;-1.50;96.82;101020.34;5067544;28;19985;-74
2021/01/26 08:45:09;;;;;;;;;;;;;;;-1.47;96.77;101020.78;5101568;28;20268;-75
2021/01/26 08:47:48;;;;;;;;;;;;;;;-1.44;96.79;101020.38;5088233;28;19967;-74
2021/01/26 08:50:29;;;;;;;;;;;;;;;-1.41;96.74;101016.41;5107789;28;19920;-74
2021/01/26 08:53:13;;;;;;;;;;;;;;;-1.39;97.01;101012.44;5085322;28;19924;-75
2021/01/26 08:55:39;;;;;;;;;;;;;;;-1.35;96.98;101001.97;5093837;28;20394;-75
2021/01/26 08:58:05;;;;;;;;;;;;;;;-1.33;96.99;101018.13;5081896;28;19955;-75
2021/01/26 09:00:33;;;;;;;;;;;;;;;-1.30;96.94;101018.56;5072512;28;20009;-75
2021/01/26 09:02:59;;;;;;;;;;;;;;;-1.28;97.11;101029.22;5071505;28;20447;-75
2021/01/26 09:05:39;;;;;;;;;;;;;;;-1.25;97.09;101028.84;5076430;28;20020;-74
2021/01/26 09:08:07;;;;;;;;;;;;;;;-1.23;97.13;101021.28;5099249;28;19916;-75
2021/01/26 09:10:34;;;;;;;;;;;;;;;-1.22;97.20;101018.38;5058374;28;19924;-74
2021/01/26 09:13:15;;;;;;;;;;;;;;;-1.18;96.97;101033.25;5063915;28;20360;-75
2021/01/26 09:15:44;;;;;;;;;;;;;;;-1.16;96.93;101033.91;5089208;28;20411;-75
2021/01/26 09:18:12;;;;;;;;;;;;;;;-1.13;96.88;101041.69;5057648;28;19969;-74
2021/01/26 09:20:37;;;;;;;;;;;;;;;-1.10;96.81;101054.06;5064879;28;19922;-74
2021/01/26 09:23:03;;;;;;;;;;;;;;;-1.08;96.69;101059.31;5096650;28;19920;-75
2021/01/26 09:25:34;;;;;;;;;;;;;;;-1.06;96.55;101065.38;5069978;28;19966;-74
2021/01/26 09:28:07;;;;;;;;;;;;;;;-1.03;96.53;101070.44;5074171;28;20300;-74
2021/01/26 09:30:32;;;;;;;;;;;;;;;-0.99;96.89;101066.25;5054441;28;20369;-74
2021/01/26 09:32:58;;;;;;;;;;;;;;;-0.98;96.63;101071.50;5085401;28;20026;-75
2021/01/26 09:35:26;;;;;;;;;;;;;;;-0.94;96.55;101069.22;5069244;28;19917;-74
2021/01/26 09:38:04;;;;;;;;;;;;;;;-0.93;96.56;101074.47;5093359;28;19920;-75
2021/01/26 09:40:29;;;;;;;;;;;;;;;-0.90;96.57;101074.03;5076645;28;19924;-74
2021/01/26 09:43:08;;;;;;;;;;;;;;;-0.88;96.63;101082.03;5101711;28;20002;-74
2021/01/26 09:45:33;;;;;;;;;;;;;;;-0.84;96.54;101087.91;5071993;28;20383;-74
2021/01/26 09:47:59;;;;;;;;;;;;;;;-0.83;96.59;101093.19;5067741;28;19917;-75
2021/01/26 09:50:28;;;;;;;;;;;;;;;-0.80;96.54;101090.03;5076109;28;19927;-74
2021/01/26 09:52:55;;;;;;;;;;;;;;;-0.79;96.46;101097.16;5031732;28;19925;-74
2021/01/26 09:55:20;;;;;;;;;;;;;;;-0.76;96.45;101109.56;5095934;28;20457;-75
2021/01/26 09:57:45;;;;;;;;;;;;;;;-0.74;96.38;101113.75;5096081;28;19916;-75
2021/01/26 10:00:15;;;;;;;;;;;;;;;-0.73;96.24;101118.16;5070272;28;20003;-76
2021/01/26 10:02:41;;;;;;;;;;;;;;;-0.70;96.40;101123.22;5062340;28;19995;-76
2021/01/26 10:05:08;;;;;;;;;;;;;;;-0.68;96.26;101123.84;5071386;28;19970;-76
2021/01/26 10:07:33;;;;;;;;;;;;;;;-0.70;96.11;101123.22;5058538;28;19921;-76
2021/01/26 10:10:31;;;;;;;;;;;;;;;-0.65;96.15;101138.13;5073112;28;19923;-76
2021/01/26 10:12:56;;;;;;;;;;;;;;;-0.63;96.17;101131.41;5012011;28;19916;-75
2021/01/26 10:15:30;;;;;;;;;;;;;;;-0.63;96.29;101136.88;5075758;28;19919;-75
2021/01/26 10:18:10;;;;;;;;;;;;;;;-0.60;96.21;101147.38;5079305;28;19939;-76
2021/01/26 10:20:38;;;;;;;;;;;;;;;-0.58;96.03;101158.09;5060855;28;20352;-76
2021/01/26 10:23:03;;;;;;;;;;;;;;;-0.56;96.02;101155.97;5052887;28;19943;-76
2021/01/26 10:25:29;;;;;;;;;;;;;;;-0.56;96.04;101159.56;5077932;28;20000;-76
2021/01/26 10:28:06;;;;;;;;;;;;;;;-0.51;96.08;101173.44;5049054;28;20277;-76
2021/01/26 10:30:31;;;;;;;;;;;;;;;-0.48;95.83;101180.38;5055558;28;20323;-76
2021/01/26 10:32:56;;;;;;;;;;;;;;;-0.47;95.93;101185.63;5055083;28;19965;-75
2021/01/26 10:35:27;;;;;;;;;;;;;;;-0.45;96.20;101179.94;5080961;28;20036;-76
2021/01/26 10:37:53;;;;;;;;;;;;;;;-0.44;95.99;101169.91;5066351;28;20291;-76
2021/01/26 10:40:18;;;;;;;;;;;;;;;-0.43;96.02;101169.69;5088171;28;19919;-76
2021/01/26 10:42:57;;;;;;;;;;;;;;;-0.41;96.00;101167.59;5066703;28;19916;-76
2021/01/26 10:45:35;;;;;;;;;;;;;;;-0.40;96.14;101155.63;5054629;28;20387;-76
2021/01/26 10:48:08;;;;;;;;;;;;;;;-0.39;95.91;101161.91;5048217;28;19924;-76
2021/01/26 10:50:33;;;;;;;;;;;;;;;-0.38;95.97;101156.25;5043397;28;19987;-75
2021/01/26 10:52:58;;;;;;;;;;;;;;;-0.37;96.06;101160.66;5078922;28;20359;-76
2021/01/26 10:55:24;;;;;;;;;;;;;;;-0.37;95.81;101157.94;5073709;28;19913;-76
2021/01/26 10:57:50;;;;;;;;;;;;;;;-0.34;95.65;101156.69;5099516;28;19916;-76
2021/01/26 11:00:22;;;;;;;;;;;;;;;-0.33;95.84;101136.53;5040849;28;19916;-76
2021/01/26 11:02:48;;;;;;;;;;;;;;;-0.32;95.84;101124.56;5072701;28;19916;-75
2021/01/26 11:05:13;;;;;;;;;;;;;;;-0.33;95.62;101126.47;5033978;28;19971;-76
2021/01/26 11:07:39;;;;;;;;;;;;;;;-0.32;95.68;101122.66;5038388;28;19938;-76
2021/01/26 11:10:05;;;;;;;;;;;;;;;-0.30;96.04;101122.47;5041416;28;20373;-76
2021/01/26 11:12:30;;;;;;;;;;;;;;;-0.28;95.70;101134.00;5059373;28;19920;-76
2021/01/26 11:14:56;;;;;;;;;;;;;;;-0.28;96.02;101123.97;5037716;28;19920;-75
2021/01/26 11:17:21;;;;;;;;;;;;;;;-0.26;95.86;101127.28;5062705;28;19956;-74
2021/01/26 11:19:47;;;;;;;;;;;;;;;-0.25;96.26;101126.28;5057397;28;19916;-74
2021/01/26 11:22:12;;;;;;;;;;;;;;;-0.20;96.03;101119.34;5076652;28;19930;-75
2021/01/26 11:24:38;;;;;;;;;;;;;;;-0.17;96.13;101113.44;5061816;28;19917;-75
2021/01/26 11:27:03;;;;;;;;;;;;;;;-0.13;96.13;101107.38;5058989;28;19916;-75
2021/01/26 11:29:29;;;;;;;;;;;;;;;-0.08;95.92;101109.50;5082282;28;19924;-74
2021/01/26 11:31:54;;;;;;;;;;;;;;;-0.05;96.17;101101.72;5050381;28;19923;-75
2021/01/26 11:34:19;;;;;;;;;;;;;;;-0.02;95.90;101101.28;5077327;28;19916;-75
2021/01/26 11:36:45;;;;;;;;;;;;;;;0.04;96.02;101093.31;5073245;28;19920;-75
2021/01/26 11:39:10;;;;;;;;;;;;;;;0.09;95.60;101083.44;5035548;28;19916;-75
2021/01/26 11:41:35;;;;;;;;;;;;;;;0.13;95.75;101075.66;5107314;28;19912;-75
2021/01/26 11:44:01;;;;;;;;;;;;;;;0.19;95.51;101052.94;5076333;28;19916;-75
2021/01/26 11:46:26;;;;;;;;;;;;;;;0.25;95.26;101043.06;5075703;28;19956;-75
2021/01/26 11:48:52;;;;;;;;;;;;;;;0.29;95.14;101027.94;5058596;28;19916;-75
2021/01/26 11:51:17;;;;;;;;;;;;;;;0.33;94.84;101007.31;5068138;28;19931;-75
2021/01/26 11:53:43;;;;;;;;;;;;;;;0.39;94.72;101014.66;5062187;28;19927;-75
2021/01/26 11:56:08;;;;;;;;;;;;;;;0.45;95.42;101022.00;5065659;28;19920;-75
2021/01/26 11:58:35;;;;;;;;;;;;;;;0.51;94.72;101026.59;5101280;28;19916;-75
2021/01/26 12:01:00;;;;;;;;;;;;;;;0.60;94.46;101025.31;5078865;28;19912;-74
2021/01/26 12:03:25;;;;;;;;;;;;;;;0.67;94.24;101022.56;5076171;28;20269;-75
2021/01/26 12:05:51;;;;;;;;;;;;;;;0.76;94.21;101014.97;5062972;28;19977;-75
2021/01/26 12:08:16;;;;;;;;;;;;;;;0.82;93.71;101006.72;5077744;28;20377;-75
2021/01/26 12:10:42;;;;;;;;;;;;;;;0.92;94.04;101002.66;5056133;28;19916;-75
2021/01/26 12:13:07;;;;;;;;;;;;;;;0.99;93.56;101004.31;5068685;28;19991;-75
2021/01/26 12:15:34;;;;;;;;;;;;;;;1.07;93.35;100997.75;5064228;28;20443;-75
2021/01/26 12:18:09;;;;;;;;;;;;;;;1.21;93.20;100988.41;5064954;28;20387;-78
2021/01/26 12:20:34;;;;;;;;;;;;;;;1.29;93.13;100992.78;5086743;28;20378;-75
2021/01/26 12:23:00;;;;;;;;;;;;;;;1.39;92.94;100987.63;5092756;28;19951;-75
2021/01/26 12:25:28;;;;;;;;;;;;;;;1.49;92.67;100977.03;5050606;28;20395;-75
2021/01/26 12:27:53;;;;;;;;;;;;;;;1.58;92.61;100958.44;5069657;28;19916;-76
2021/01/26 12:30:19;;;;;;;;;;;;;;;1.64;92.44;100940.25;5084069;28;19923;-76
2021/01/26 12:32:45;;;;;;;;;;;;;;;1.72;91.76;100939.97;5044317;28;20017;-76
2021/01/26 12:35:12;;;;;;;;;;;;;;;1.78;91.77;100953.63;5081570;28;19924;-75
2021/01/26 12:37:37;;;;;;;;;;;;;;;1.86;91.71;100938.78;5065030;28;19917;-76
2021/01/26 12:40:03;;;;;;;;;;;;;;;1.94;91.58;100935.75;5060990;28;19968;-75
2021/01/26 12:42:34;;;;;;;;;;;;;;;1.98;91.31;100931.50;5096463;28;19920;-76
2021/01/26 12:45:03;;;;;;;;;;;;;;;2.04;91.31;100931.69;5066993;28;19916;-75
2021/01/26 12:47:28;;;;;;;;;;;;;;;2.08;91.45;100919.19;5057163;28;19922;-75